sensor_id;sensor_type;location;lat;lon;timestamp;pressure;altitude;pressure_sealevel;temperature;humidity
67457;BME280;54319;52.038;4.640;2023-01-27T00:00:02;102771.16;;;4.82;86.90
67457;BME280;54319;52.038;4.640;2023-01-27T00:02:30;102774.75;;;4.82;86.94
67457;BME280;54319;52.038;4.640;2023-01-27T00:04:58;102775.97;;;4.78;87.28
67457;BME280;54319;52.038;4.640;2023-01-27T00:07:27;102783.59;;;4.84;85.76
67457;BME280;54319;52.038;4.640;2023-01-27T00:09:53;102769.19;;;4.84;85.34
67457;BME280;54319;52.038;4.640;2023-01-27T00:12:21;102777.03;;;4.87;85.21
67457;BME280;54319;52.038;4.640;2023-01-27T00:15:05;102773.59;;;4.85;85.08
67457;BME280;54319;52.038;4.640;2023-01-27T00:17:33;102773.34;;;4.88;84.82
67457;BME280;54319;52.038;4.640;2023-01-27T00:20:01;102767.69;;;4.91;84.32
67457;BME280;54319;52.038;4.640;2023-01-27T00:22:28;102761.28;;;4.92;83.84
67457;BME280;54319;52.038;4.640;2023-01-27T00:25:12;102767.47;;;4.94;83.85
67457;BME280;54319;52.038;4.640;2023-01-27T00:27:40;102767.31;;;4.96;83.36
67457;BME280;54319;52.038;4.640;2023-01-27T00:30:07;102770.75;;;4.98;83.42
67457;BME280;54319;52.038;4.640;2023-01-27T00:32:34;102763.25;;;5.01;83.46
67457;BME280;54319;52.038;4.640;2023-01-27T00:35:19;102763.50;;;4.98;83.52
67457;BME280;54319;52.038;4.640;2023-01-27T00:37:46;102762.78;;;4.96;84.16
67457;BME280;54319;52.038;4.640;2023-01-27T00:40:13;102764.88;;;4.92;84.15
67457;BME280;54319;52.038;4.640;2023-01-27T00:42:41;102767.84;;;4.89;84.66
67457;BME280;54319;52.038;4.640;2023-01-27T00:45:08;102775.22;;;4.87;84.85
67457;BME280;54319;52.038;4.640;2023-01-27T00:47:53;102769.81;;;4.87;84.97
67457;BME280;54319;52.038;4.640;2023-01-27T00:50:21;102772.88;;;4.83;85.30
67457;BME280;54319;52.038;4.640;2023-01-27T00:52:49;102775.84;;;4.80;85.61
67457;BME280;54319;52.038;4.640;2023-01-27T00:55:16;102773.13;;;4.80;85.62
67457;BME280;54319;52.038;4.640;2023-01-27T00:57:43;102775.00;;;4.79;85.72
67457;BME280;54319;52.038;4.640;2023-01-27T01:00:11;102767.88;;;4.78;85.52
67457;BME280;54319;52.038;4.640;2023-01-27T01:02:40;102767.72;;;4.80;85.29
67457;BME280;54319;52.038;4.640;2023-01-27T01:05:07;102771.41;;;4.78;85.42
67457;BME280;54319;52.038;4.640;2023-01-27T01:07:36;102776.56;;;4.82;84.71
67457;BME280;54319;52.038;4.640;2023-01-27T01:10:02;102788.63;;;4.77;85.11
67457;BME280;54319;52.038;4.640;2023-01-27T01:12:29;102770.44;;;4.80;84.70
67457;BME280;54319;52.038;4.640;2023-01-27T01:14:56;102784.19;;;4.76;84.30
67457;BME280;54319;52.038;4.640;2023-01-27T01:17:23;102777.34;;;4.72;84.20
67457;BME280;54319;52.038;4.640;2023-01-27T01:19:49;102774.63;;;4.72;83.98
67457;BME280;54319;52.038;4.640;2023-01-27T01:22:17;102783.22;;;4.77;83.31
67457;BME280;54319;52.038;4.640;2023-01-27T01:24:45;102781.50;;;4.76;83.46
67457;BME280;54319;52.038;4.640;2023-01-27T01:27:11;102782.63;;;4.74;83.26
67457;BME280;54319;52.038;4.640;2023-01-27T01:29:38;102783.72;;;4.71;83.75
67457;BME280;54319;52.038;4.640;2023-01-27T01:32:05;102778.44;;;4.70;84.05
67457;BME280;54319;52.038;4.640;2023-01-27T01:34:34;102780.53;;;4.66;84.27
67457;BME280;54319;52.038;4.640;2023-01-27T01:37:10;102783.59;;;4.61;84.25
67457;BME280;54319;52.038;4.640;2023-01-27T01:45:51;102782.50;;;4.53;84.42
67457;BME280;54319;52.038;4.640;2023-01-27T01:48:20;102782.03;;;4.47;84.05
67457;BME280;54319;52.038;4.640;2023-01-27T01:50:49;102790.53;;;4.43;83.90
67457;BME280;54319;52.038;4.640;2023-01-27T01:53:17;102794.81;;;4.45;83.21
67457;BME280;54319;52.038;4.640;2023-01-27T01:55:46;102792.59;;;4.39;83.39
67457;BME280;54319;52.038;4.640;2023-01-27T01:58:14;102800.84;;;4.38;83.58
67457;BME280;54319;52.038;4.640;2023-01-27T02:00:41;102804.75;;;4.33;83.49
67457;BME280;54319;52.038;4.640;2023-01-27T02:03:10;102806.84;;;4.30;83.25
67457;BME280;54319;52.038;4.640;2023-01-27T02:05:38;102807.84;;;4.29;83.37
67457;BME280;54319;52.038;4.640;2023-01-27T02:08:08;102797.88;;;4.29;82.95
67457;BME280;54319;52.038;4.640;2023-01-27T02:10:37;102801.81;;;4.25;83.23
67457;BME280;54319;52.038;4.640;2023-01-27T02:13:06;102812.50;;;4.27;83.32
67457;BME280;54319;52.038;4.640;2023-01-27T02:15:32;102798.13;;;4.26;83.25
67457;BME280;54319;52.038;4.640;2023-01-27T02:17:59;102806.34;;;4.25;83.62
67457;BME280;54319;52.038;4.640;2023-01-27T02:20:30;102800.97;;;4.25;83.22
67457;BME280;54319;52.038;4.640;2023-01-27T02:23:02;102788.53;;;4.22;83.09
67457;BME280;54319;52.038;4.640;2023-01-27T02:25:40;102810.41;;;4.19;83.32
67457;BME280;54319;52.038;4.640;2023-01-27T02:28:09;102807.59;;;4.20;83.25
67457;BME280;54319;52.038;4.640;2023-01-27T02:30:36;102811.03;;;4.23;83.17
67457;BME280;54319;52.038;4.640;2023-01-27T02:33:07;102808.78;;;4.16;83.76
67457;BME280;54319;52.038;4.640;2023-01-27T02:35:35;102805.25;;;4.16;83.89
67457;BME280;54319;52.038;4.640;2023-01-27T02:38:03;102804.59;;;4.12;84.41
67457;BME280;54319;52.038;4.640;2023-01-27T02:40:31;102802.88;;;4.11;84.15
67457;BME280;54319;52.038;4.640;2023-01-27T02:43:00;102810.00;;;4.12;83.87
67457;BME280;54319;52.038;4.640;2023-01-27T02:45:41;102802.66;;;4.14;83.90
67457;BME280;54319;52.038;4.640;2023-01-27T02:48:27;102810.25;;;4.09;84.15
67457;BME280;54319;52.038;4.640;2023-01-27T02:50:54;102812.22;;;4.07;84.54
67457;BME280;54319;52.038;4.640;2023-01-27T02:53:21;102802.78;;;4.01;85.01
67457;BME280;54319;52.038;4.640;2023-01-27T02:56:07;102813.69;;;4.00;84.59
67457;BME280;54319;52.038;4.640;2023-01-27T03:04:47;102817.72;;;3.94;83.88
67457;BME280;54319;52.038;4.640;2023-01-27T03:07:15;102815.16;;;3.93;84.14
67457;BME280;54319;52.038;4.640;2023-01-27T03:09:41;102821.63;;;3.90;84.73
67457;BME280;54319;52.038;4.640;2023-01-27T03:12:18;102807.28;;;3.89;84.30
67457;BME280;54319;52.038;4.640;2023-01-27T03:14:53;102827.28;;;3.87;84.52
67457;BME280;54319;52.038;4.640;2023-01-27T03:17:38;102821.13;;;3.85;84.07
67457;BME280;54319;52.038;4.640;2023-01-27T03:20:23;102818.69;;;3.82;84.38
67457;BME280;54319;52.038;4.640;2023-01-27T03:22:53;102825.94;;;3.81;84.55
67457;BME280;54319;52.038;4.640;2023-01-27T03:25:20;102818.91;;;3.79;84.95
67457;BME280;54319;52.038;4.640;2023-01-27T03:27:47;102825.81;;;3.83;85.03
67457;BME280;54319;52.038;4.640;2023-01-27T03:30:14;102832.06;;;3.83;84.91
67457;BME280;54319;52.038;4.640;2023-01-27T03:32:41;102839.53;;;3.80;84.67
67457;BME280;54319;52.038;4.640;2023-01-27T03:35:11;102843.31;;;3.77;84.60
67457;BME280;54319;52.038;4.640;2023-01-27T03:37:43;102841.84;;;3.73;84.83
67457;BME280;54319;52.038;4.640;2023-01-27T03:40:27;102836.69;;;3.70;84.29
67457;BME280;54319;52.038;4.640;2023-01-27T03:43:17;102841.47;;;3.66;84.75
67457;BME280;54319;52.038;4.640;2023-01-27T03:46:01;102844.03;;;3.68;84.42
67457;BME280;54319;52.038;4.640;2023-01-27T03:48:43;102840.59;;;3.66;84.36
67457;BME280;54319;52.038;4.640;2023-01-27T03:51:10;102845.25;;;3.64;84.60
67457;BME280;54319;52.038;4.640;2023-01-27T03:53:38;102854.31;;;3.62;84.65
67457;BME280;54319;52.038;4.640;2023-01-27T03:56:05;102858.13;;;3.60;84.89
67457;BME280;54319;52.038;4.640;2023-01-27T03:58:34;102855.53;;;3.58;85.24
67457;BME280;54319;52.038;4.640;2023-01-27T04:01:01;102864.72;;;3.56;85.08
67457;BME280;54319;52.038;4.640;2023-01-27T04:03:30;102874.75;;;3.54;85.04
67457;BME280;54319;52.038;4.640;2023-01-27T04:06:14;102871.31;;;3.52;84.92
67457;BME280;54319;52.038;4.640;2023-01-27T04:09:01;102878.56;;;3.51;84.65
67457;BME280;54319;52.038;4.640;2023-01-27T04:11:29;102870.56;;;3.50;84.70
67457;BME280;54319;52.038;4.640;2023-01-27T04:14:14;102855.25;;;3.26;84.95
67457;BME280;54319;52.038;4.640;2023-01-27T04:16:42;102888.72;;;3.47;85.03
67457;BME280;54319;52.038;4.640;2023-01-27T04:19:09;102885.28;;;3.45;84.99
67457;BME280;54319;52.038;4.640;2023-01-27T04:21:36;102896.06;;;3.45;85.00
67457;BME280;54319;52.038;4.640;2023-01-27T04:24:05;102901.38;;;3.47;85.04
67457;BME280;54319;52.038;4.640;2023-01-27T04:26:42;102900.72;;;3.43;84.70
67457;BME280;54319;52.038;4.640;2023-01-27T04:29:10;102905.28;;;3.43;84.91
67457;BME280;54319;52.038;4.640;2023-01-27T04:31:38;102900.06;;;3.40;84.42
67457;BME280;54319;52.038;4.640;2023-01-27T04:34:04;102908.31;;;3.38;84.03
67457;BME280;54319;52.038;4.640;2023-01-27T04:36:31;102909.16;;;3.39;83.78
67457;BME280;54319;52.038;4.640;2023-01-27T04:38:58;102911.09;;;3.37;84.04
67457;BME280;54319;52.038;4.640;2023-01-27T04:41:26;102912.22;;;3.34;83.82
67457;BME280;54319;52.038;4.640;2023-01-27T04:43:53;102913.19;;;3.33;83.82
67457;BME280;54319;52.038;4.640;2023-01-27T04:46:19;102915.00;;;3.32;83.89
67457;BME280;54319;52.038;4.640;2023-01-27T04:48:47;102919.56;;;3.32;84.01
67457;BME280;54319;52.038;4.640;2023-01-27T04:51:13;102918.69;;;3.31;84.42
67457;BME280;54319;52.038;4.640;2023-01-27T04:53:40;102913.19;;;3.33;83.86
67457;BME280;54319;52.038;4.640;2023-01-27T04:56:13;102909.84;;;3.29;84.00
67457;BME280;54319;52.038;4.640;2023-01-27T04:58:44;102916.22;;;3.28;83.79
67457;BME280;54319;52.038;4.640;2023-01-27T05:01:11;102918.91;;;3.28;83.23
67457;BME280;54319;52.038;4.640;2023-01-27T05:03:38;102912.66;;;3.28;83.20
67457;BME280;54319;52.038;4.640;2023-01-27T05:06:04;102913.50;;;3.28;82.93
67457;BME280;54319;52.038;4.640;2023-01-27T05:08:32;102918.91;;;3.28;82.98
67457;BME280;54319;52.038;4.640;2023-01-27T05:10:59;102917.09;;;3.29;82.82
67457;BME280;54319;52.038;4.640;2023-01-27T05:13:26;102918.91;;;3.28;82.82
67457;BME280;54319;52.038;4.640;2023-01-27T05:16:03;102926.16;;;3.28;82.64
67457;BME280;54319;52.038;4.640;2023-01-27T05:18:30;102923.31;;;3.29;82.66
67457;BME280;54319;52.038;4.640;2023-01-27T05:20:57;102931.31;;;3.31;82.88
67457;BME280;54319;52.038;4.640;2023-01-27T05:23:25;102926.91;;;3.30;83.02
67457;BME280;54319;52.038;4.640;2023-01-27T05:26:00;102926.91;;;3.30;82.18
67457;BME280;54319;52.038;4.640;2023-01-27T05:28:28;102932.16;;;3.31;82.22
67457;BME280;54319;52.038;4.640;2023-01-27T05:30:59;102933.88;;;3.32;82.49
67457;BME280;54319;52.038;4.640;2023-01-27T05:33:28;102932.91;;;3.33;82.04
67457;BME280;54319;52.038;4.640;2023-01-27T05:35:56;102931.19;;;3.32;82.06
67457;BME280;54319;52.038;4.640;2023-01-27T05:38:23;102930.22;;;3.33;82.21
67457;BME280;54319;52.038;4.640;2023-01-27T05:40:53;102939.06;;;3.36;81.71
67457;BME280;54319;52.038;4.640;2023-01-27T05:43:20;102940.91;;;3.35;81.75
67457;BME280;54319;52.038;4.640;2023-01-27T05:45:46;102939.81;;;3.38;81.17
67457;BME280;54319;52.038;4.640;2023-01-27T05:48:13;102941.53;;;3.39;81.14
67457;BME280;54319;52.038;4.640;2023-01-27T05:50:41;102946.91;;;3.39;81.06
67457;BME280;54319;52.038;4.640;2023-01-27T05:53:08;102944.13;;;3.40;80.97
67457;BME280;54319;52.038;4.640;2023-01-27T05:55:34;102937.84;;;3.40;80.86
67457;BME280;54319;52.038;4.640;2023-01-27T05:58:01;102938.63;;;3.42;80.65
67457;BME280;54319;52.038;4.640;2023-01-27T06:00:28;102945.75;;;3.43;80.71
67457;BME280;54319;52.038;4.640;2023-01-27T06:02:55;102944.03;;;3.42;80.50
67457;BME280;54319;52.038;4.640;2023-01-27T06:05:21;102948.44;;;3.43;80.04
67457;BME280;54319;52.038;4.640;2023-01-27T06:07:50;102953.50;;;3.47;79.70
67457;BME280;54319;52.038;4.640;2023-01-27T06:10:19;102953.63;;;3.46;79.52
67457;BME280;54319;52.038;4.640;2023-01-27T06:12:46;102946.50;;;3.45;80.39
67457;BME280;54319;52.038;4.640;2023-01-27T06:15:12;102949.28;;;3.43;80.33
67457;BME280;54319;52.038;4.640;2023-01-27T06:17:39;102950.16;;;3.44;79.82
67457;BME280;54319;52.038;4.640;2023-01-27T06:20:06;102943.81;;;3.45;79.72
67457;BME280;54319;52.038;4.640;2023-01-27T06:22:33;102947.47;;;3.44;79.51
67457;BME280;54319;52.038;4.640;2023-01-27T06:25:01;102949.28;;;3.43;79.58
67457;BME280;54319;52.038;4.640;2023-01-27T06:27:28;102958.38;;;3.42;79.77
67457;BME280;54319;52.038;4.640;2023-01-27T06:29:55;102957.53;;;3.42;79.99
67457;BME280;54319;52.038;4.640;2023-01-27T06:32:22;102956.75;;;3.40;79.53
67457;BME280;54319;52.038;4.640;2023-01-27T06:34:48;102966.69;;;3.39;79.27
67457;BME280;54319;52.038;4.640;2023-01-27T06:37:15;102970.22;;;3.40;79.10
67457;BME280;54319;52.038;4.640;2023-01-27T06:39:41;102964.84;;;3.40;78.91
67457;BME280;54319;52.038;4.640;2023-01-27T06:42:10;102971.34;;;3.37;78.51
67457;BME280;54319;52.038;4.640;2023-01-27T06:44:36;102969.38;;;3.39;77.21
67457;BME280;54319;52.038;4.640;2023-01-27T06:47:04;102966.78;;;3.38;76.94
67457;BME280;54319;52.038;4.640;2023-01-27T06:49:30;102974.88;;;3.38;76.53
67457;BME280;54319;52.038;4.640;2023-01-27T06:51:58;102977.56;;;3.38;76.62
67457;BME280;54319;52.038;4.640;2023-01-27T06:54:25;102984.91;;;3.36;76.58
67457;BME280;54319;52.038;4.640;2023-01-27T06:56:52;102974.25;;;3.34;76.70
67457;BME280;54319;52.038;4.640;2023-01-27T06:59:19;102980.63;;;3.33;77.01
67457;BME280;54319;52.038;4.640;2023-01-27T07:01:46;102974.34;;;3.32;77.57
67457;BME280;54319;52.038;4.640;2023-01-27T07:04:13;102987.00;;;3.32;77.17
67457;BME280;54319;52.038;4.640;2023-01-27T07:06:39;102971.78;;;3.31;76.59
67457;BME280;54319;52.038;4.640;2023-01-27T07:09:07;102980.84;;;3.30;77.08
67457;BME280;54319;52.038;4.640;2023-01-27T07:11:33;102979.97;;;3.29;77.13
67457;BME280;54319;52.038;4.640;2023-01-27T07:14:00;102971.03;;;3.29;77.58
67457;BME280;54319;52.038;4.640;2023-01-27T07:16:29;102986.56;;;3.25;77.48
67457;BME280;54319;52.038;4.640;2023-01-27T07:18:55;102987.53;;;3.24;78.04
67457;BME280;54319;52.038;4.640;2023-01-27T07:21:23;102987.78;;;3.21;78.57
67457;BME280;54319;52.038;4.640;2023-01-27T07:23:50;102981.84;;;3.16;78.60
67457;BME280;54319;52.038;4.640;2023-01-27T07:26:16;102986.38;;;3.15;78.27
67457;BME280;54319;52.038;4.640;2023-01-27T07:28:43;102980.44;;;3.10;78.69
67457;BME280;54319;52.038;4.640;2023-01-27T07:31:10;102985.22;;;3.07;78.50
67457;BME280;54319;52.038;4.640;2023-01-27T07:33:38;102985.44;;;3.03;78.63
67457;BME280;54319;52.038;4.640;2023-01-27T07:36:05;102992.66;;;3.03;79.22
67457;BME280;54319;52.038;4.640;2023-01-27T07:38:32;103001.81;;;3.00;78.98
67457;BME280;54319;52.038;4.640;2023-01-27T07:41:02;103003.75;;;2.98;78.29
67457;BME280;54319;52.038;4.640;2023-01-27T07:43:30;103011.63;;;3.01;77.70
67457;BME280;54319;52.038;4.640;2023-01-27T07:45:57;103018.94;;;2.99;77.57
67457;BME280;54319;52.038;4.640;2023-01-27T07:48:24;103011.75;;;3.00;77.96
67457;BME280;54319;52.038;4.640;2023-01-27T07:50:52;103015.28;;;3.00;77.47
67457;BME280;54319;52.038;4.640;2023-01-27T07:53:19;103017.97;;;3.00;78.07
67457;BME280;54319;52.038;4.640;2023-01-27T07:55:45;103015.28;;;3.00;77.42
67457;BME280;54319;52.038;4.640;2023-01-27T07:58:12;103026.81;;;3.02;77.29
67457;BME280;54319;52.038;4.640;2023-01-27T08:00:39;103033.09;;;3.03;77.54
67457;BME280;54319;52.038;4.640;2023-01-27T08:03:11;103030.31;;;3.04;77.90
67457;BME280;54319;52.038;4.640;2023-01-27T08:05:45;103032.03;;;3.06;78.14
67457;BME280;54319;52.038;4.640;2023-01-27T08:08:14;103031.06;;;3.07;78.78
67457;BME280;54319;52.038;4.640;2023-01-27T08:10:40;103030.31;;;3.04;79.21
67457;BME280;54319;52.038;4.640;2023-01-27T08:13:11;103033.09;;;3.03;78.16
67457;BME280;54319;52.038;4.640;2023-01-27T08:15:37;103028.69;;;3.02;78.83
67457;BME280;54319;52.038;4.640;2023-01-27T08:18:04;103036.84;;;3.00;77.93
67457;BME280;54319;52.038;4.640;2023-01-27T08:20:30;103037.06;;;2.97;77.95
67457;BME280;54319;52.038;4.640;2023-01-27T08:22:58;103040.88;;;2.95;76.87
67457;BME280;54319;52.038;4.640;2023-01-27T08:25:26;103033.75;;;2.94;76.88
67457;BME280;54319;52.038;4.640;2023-01-27T08:27:54;103044.41;;;2.95;76.75
67457;BME280;54319;52.038;4.640;2023-01-27T08:30:21;103047.09;;;2.95;75.95
67457;BME280;54319;52.038;4.640;2023-01-27T08:32:48;103050.78;;;2.94;75.93
67457;BME280;54319;52.038;4.640;2023-01-27T08:35:15;103045.28;;;2.96;75.52
67457;BME280;54319;52.038;4.640;2023-01-27T08:37:42;103041.50;;;2.98;75.22
67457;BME280;54319;52.038;4.640;2023-01-27T08:40:09;103052.41;;;2.97;75.03
67457;BME280;54319;52.038;4.640;2023-01-27T08:42:38;103047.66;;;3.00;74.79
67457;BME280;54319;52.038;4.640;2023-01-27T08:45:04;103049.19;;;3.04;74.28
67457;BME280;54319;52.038;4.640;2023-01-27T08:47:33;103038.28;;;3.06;74.25
67457;BME280;54319;52.038;4.640;2023-01-27T08:50:00;103056.09;;;3.09;74.87
67457;BME280;54319;52.038;4.640;2023-01-27T08:52:27;103049.19;;;3.04;74.53
67457;BME280;54319;52.038;4.640;2023-01-27T08:54:54;103049.72;;;3.10;74.82
67457;BME280;54319;52.038;4.640;2023-01-27T08:57:21;103053.16;;;3.12;74.96
67457;BME280;54319;52.038;4.640;2023-01-27T08:59:50;103058.34;;;3.15;75.08
67457;BME280;54319;52.038;4.640;2023-01-27T09:02:17;103054.31;;;3.21;74.90
67457;BME280;54319;52.038;4.640;2023-01-27T09:04:46;103062.84;;;3.27;75.30
67457;BME280;54319;52.038;4.640;2023-01-27T09:07:13;103057.25;;;3.30;74.01
67457;BME280;54319;52.038;4.640;2023-01-27T09:09:39;103067.59;;;3.37;74.04
67457;BME280;54319;52.038;4.640;2023-01-27T09:12:07;103059.28;;;3.40;74.37
67457;BME280;54319;52.038;4.640;2023-01-27T09:14:33;103072.88;;;3.51;74.27
67457;BME280;54319;52.038;4.640;2023-01-27T09:17:01;103066.06;;;3.58;75.63
67457;BME280;54319;52.038;4.640;2023-01-27T09:19:29;103067.53;;;3.75;74.98
67457;BME280;54319;52.038;4.640;2023-01-27T09:21:57;103060.00;;;3.92;75.27
67457;BME280;54319;52.038;4.640;2023-01-27T09:24:24;103056.09;;;3.96;74.50
67457;BME280;54319;52.038;4.640;2023-01-27T09:26:50;103059.34;;;4.01;74.78
67457;BME280;54319;52.038;4.640;2023-01-27T09:29:18;103069.19;;;4.02;74.32
67457;BME280;54319;52.038;4.640;2023-01-27T09:31:45;103065.09;;;3.97;74.08
67457;BME280;54319;52.038;4.640;2023-01-27T09:34:13;103057.72;;;3.99;74.27
67457;BME280;54319;52.038;4.640;2023-01-27T09:36:42;103065.31;;;3.94;74.11
67457;BME280;54319;52.038;4.640;2023-01-27T09:39:11;103078.59;;;3.97;73.62
67457;BME280;54319;52.038;4.640;2023-01-27T09:41:44;103066.59;;;4.01;73.28
67457;BME280;54319;52.038;4.640;2023-01-27T09:44:26;103071.66;;;4.05;72.94
67457;BME280;54319;52.038;4.640;2023-01-27T09:47:13;103068.25;;;4.15;72.73
67457;BME280;54319;52.038;4.640;2023-01-27T09:49:50;103067.50;;;4.13;72.91
67457;BME280;54319;52.038;4.640;2023-01-27T09:52:26;103067.06;;;4.19;72.12
67457;BME280;54319;52.038;4.640;2023-01-27T09:54:57;103058.25;;;4.28;72.47
67457;BME280;54319;52.038;4.640;2023-01-27T09:57:30;103067.00;;;4.32;72.08
67457;BME280;54319;52.038;4.640;2023-01-27T10:00:07;103064.28;;;4.32;71.85
67457;BME280;54319;52.038;4.640;2023-01-27T10:02:46;103058.88;;;4.32;70.82
67457;BME280;54319;52.038;4.640;2023-01-27T10:05:31;103070.53;;;4.32;71.27
67457;BME280;54319;52.038;4.640;2023-01-27T10:08:11;103074.41;;;4.41;71.24
67457;BME280;54319;52.038;4.640;2023-01-27T10:10:43;103069.69;;;4.32;70.79
67457;BME280;54319;52.038;4.640;2023-01-27T10:13:20;103069.88;;;4.42;70.74
67457;BME280;54319;52.038;4.640;2023-01-27T10:15:56;103062.59;;;4.42;70.72
67457;BME280;54319;52.038;4.640;2023-01-27T10:18:30;103071.97;;;4.49;70.85
67457;BME280;54319;52.038;4.640;2023-01-27T10:21:06;103079.16;;;4.62;70.76
67457;BME280;54319;52.038;4.640;2023-01-27T10:23:39;103076.59;;;4.72;69.12
67457;BME280;54319;52.038;4.640;2023-01-27T10:26:09;103072.50;;;4.55;69.47
67457;BME280;54319;52.038;4.640;2023-01-27T10:28:41;103063.91;;;4.61;69.77
67457;BME280;54319;52.038;4.640;2023-01-27T10:31:13;103074.50;;;4.64;69.27
67457;BME280;54319;52.038;4.640;2023-01-27T10:33:45;103079.28;;;4.72;69.61
67457;BME280;54319;52.038;4.640;2023-01-27T10:36:20;103077.22;;;4.75;70.19
67457;BME280;54319;52.038;4.640;2023-01-27T10:38:52;103076.75;;;4.82;70.77
67457;BME280;54319;52.038;4.640;2023-01-27T10:41:26;103076.25;;;4.88;70.67
67457;BME280;54319;52.038;4.640;2023-01-27T10:44:00;103071.38;;;4.93;69.37
67457;BME280;54319;52.038;4.640;2023-01-27T10:46:34;103075.81;;;5.05;69.15
67457;BME280;54319;52.038;4.640;2023-01-27T10:49:06;103068.09;;;5.12;69.33
67457;BME280;54319;52.038;4.640;2023-01-27T10:51:40;103065.50;;;5.11;69.79
67457;BME280;54319;52.038;4.640;2023-01-27T10:54:09;103062.91;;;5.09;70.04
67457;BME280;54319;52.038;4.640;2023-01-27T10:56:38;103059.09;;;5.23;70.31
67457;BME280;54319;52.038;4.640;2023-01-27T10:59:08;103054.31;;;5.27;69.29
67457;BME280;54319;52.038;4.640;2023-01-27T11:01:38;103053.72;;;5.34;68.74
67457;BME280;54319;52.038;4.640;2023-01-27T11:04:08;103058.00;;;5.26;68.55
67457;BME280;54319;52.038;4.640;2023-01-27T11:06:39;103053.69;;;5.12;69.20
67457;BME280;54319;52.038;4.640;2023-01-27T11:09:09;103055.16;;;5.04;69.64
67457;BME280;54319;52.038;4.640;2023-01-27T11:11:38;103056.63;;;4.97;70.43
67457;BME280;54319;52.038;4.640;2023-01-27T11:14:11;103059.59;;;4.94;70.80
67457;BME280;54319;52.038;4.640;2023-01-27T11:16:42;103058.31;;;4.87;71.38
67457;BME280;54319;52.038;4.640;2023-01-27T11:19:13;103054.25;;;4.81;71.31
67457;BME280;54319;52.038;4.640;2023-01-27T11:21:43;103056.72;;;4.84;71.05
67457;BME280;54319;52.038;4.640;2023-01-27T11:24:15;103060.31;;;4.96;69.98
67457;BME280;54319;52.038;4.640;2023-01-27T11:26:47;103055.75;;;5.08;70.26
67457;BME280;54319;52.038;4.640;2023-01-27T11:29:17;103056.28;;;5.25;70.32
67457;BME280;54319;52.038;4.640;2023-01-27T11:31:47;103047.94;;;5.28;70.67
67457;BME280;54319;52.038;4.640;2023-01-27T11:34:19;103054.19;;;5.28;70.80
67457;BME280;54319;52.038;4.640;2023-01-27T11:36:51;103044.13;;;5.30;70.29
67457;BME280;54319;52.038;4.640;2023-01-27T11:39:17;103046.69;;;5.32;69.93
67457;BME280;54319;52.038;4.640;2023-01-27T11:41:45;103052.00;;;5.33;69.85
67457;BME280;54319;52.038;4.640;2023-01-27T11:44:16;103047.56;;;5.32;69.68
67457;BME280;54319;52.038;4.640;2023-01-27T11:46:43;103052.97;;;5.32;69.24
67457;BME280;54319;52.038;4.640;2023-01-27T11:49:11;103050.28;;;5.32;70.10
67457;BME280;54319;52.038;4.640;2023-01-27T11:51:40;103041.53;;;5.29;69.13
67457;BME280;54319;52.038;4.640;2023-01-27T11:54:10;103040.66;;;5.28;69.83
67457;BME280;54319;52.038;4.640;2023-01-27T11:56:40;103042.88;;;5.34;69.86
67457;BME280;54319;52.038;4.640;2023-01-27T11:59:12;103038.22;;;5.36;70.73
67457;BME280;54319;52.038;4.640;2023-01-27T12:01:41;103027.63;;;5.33;70.19
67457;BME280;54319;52.038;4.640;2023-01-27T12:04:13;103025.03;;;5.32;70.75
67457;BME280;54319;52.038;4.640;2023-01-27T12:06:44;103024.19;;;5.31;71.34
67457;BME280;54319;52.038;4.640;2023-01-27T12:12:08;103023.81;;;5.25;70.43
67457;BME280;54319;52.038;4.640;2023-01-27T12:14:35;103024.81;;;5.24;71.37
67457;BME280;54319;52.038;4.640;2023-01-27T12:17:02;103026.78;;;5.21;71.33
67457;BME280;54319;52.038;4.640;2023-01-27T12:19:30;103019.75;;;5.19;71.61
67457;BME280;54319;52.038;4.640;2023-01-27T12:21:59;103017.03;;;5.07;71.42
67457;BME280;54319;52.038;4.640;2023-01-27T12:24:27;103014.09;;;5.11;71.61
67457;BME280;54319;52.038;4.640;2023-01-27T12:26:56;103012.72;;;5.05;72.45
67457;BME280;54319;52.038;4.640;2023-01-27T12:29:27;103022.06;;;5.01;72.08
67457;BME280;54319;52.038;4.640;2023-01-27T12:31:58;103021.97;;;5.02;72.17
67457;BME280;54319;52.038;4.640;2023-01-27T12:34:27;103016.16;;;4.96;72.38
67457;BME280;54319;52.038;4.640;2023-01-27T12:36:55;103025.50;;;4.91;72.66
67457;BME280;54319;52.038;4.640;2023-01-27T12:39:24;103008.41;;;4.80;73.27
67457;BME280;54319;52.038;4.640;2023-01-27T12:41:53;103013.81;;;4.80;72.70
67457;BME280;54319;52.038;4.640;2023-01-27T12:44:19;103012.97;;;4.79;73.87
67457;BME280;54319;52.038;4.640;2023-01-27T12:46:55;103013.06;;;4.77;74.32
67457;BME280;54319;52.038;4.640;2023-01-27T12:49:23;103016.00;;;4.74;74.08
67457;BME280;54319;52.038;4.640;2023-01-27T12:51:52;103011.09;;;4.68;73.63
67457;BME280;54319;52.038;4.640;2023-01-27T12:54:20;103006.66;;;4.67;74.48
67457;BME280;54319;52.038;4.640;2023-01-27T12:56:47;103009.84;;;4.61;74.34
67457;BME280;54319;52.038;4.640;2023-01-27T12:59:15;103002.81;;;4.58;74.40
67457;BME280;54319;52.038;4.640;2023-01-27T13:01:55;103008.56;;;4.54;74.91
67457;BME280;54319;52.038;4.640;2023-01-27T13:04:24;103007.50;;;4.56;75.49
67457;BME280;54319;52.038;4.640;2023-01-27T13:06:53;103011.28;;;4.54;75.04
67457;BME280;54319;52.038;4.640;2023-01-27T13:09:23;103014.88;;;4.54;74.22
67457;BME280;54319;52.038;4.640;2023-01-27T13:11:51;103007.38;;;4.58;74.53
67457;BME280;54319;52.038;4.640;2023-01-27T13:14:18;103002.72;;;4.60;74.13
67457;BME280;54319;52.038;4.640;2023-01-27T13:16:49;103004.44;;;4.61;74.31
67457;BME280;54319;52.038;4.640;2023-01-27T13:19:16;103016.09;;;4.61;73.69
67457;BME280;54319;52.038;4.640;2023-01-27T13:21:47;103012.56;;;4.61;73.98
67457;BME280;54319;52.038;4.640;2023-01-27T13:24:15;103002.22;;;4.55;73.08
67457;BME280;54319;52.038;4.640;2023-01-27T13:26:45;103008.47;;;4.55;73.32